sensor_id;sensor_type;location;lat;lon;timestamp;P1;P2;P0
64861;PMS5003;62652;42.274;-71.436;2023-05-10T00:00:00;1.27;1.27;1.00
64861;PMS5003;62652;42.274;-71.436;2023-05-10T00:01:00;2.17;1.93;1.27
64861;PMS5003;62652;42.274;-71.436;2023-05-10T00:02:00;2.30;2.10;1.00
64861;PMS5003;62652;42.274;-71.436;2023-05-10T00:03:00;1.10;1.10;0.90
64861;PMS5003;62652;42.274;-71.436;2023-05-10T00:04:00;1.33;1.33;0.23
64861;PMS5003;62652;42.274;-71.436;2023-05-10T00:05:00;1.43;1.43;0.43
64861;PMS5003;62652;42.274;-71.436;2023-05-10T00:06:00;2.83;2.83;1.40
64861;PMS5003;62652;42.274;-71.436;2023-05-10T00:07:00;1.40;1.40;0.77
64861;PMS5003;62652;42.274;-71.436;2023-05-10T00:08:00;2.80;2.67;1.40
64861;PMS5003;62652;42.274;-71.436;2023-05-10T00:09:00;3.20;2.70;1.40
64861;PMS5003;62652;42.274;-71.436;2023-05-10T00:10:00;3.20;3.10;2.70
64861;PMS5003;62652;42.274;-71.436;2023-05-10T00:11:00;2.63;2.00;1.10
64861;PMS5003;62652;42.274;-71.436;2023-05-10T00:12:00;3.60;3.30;1.90
64861;PMS5003;62652;42.274;-71.436;2023-05-10T00:13:00;3.53;3.53;2.50
64861;PMS5003;62652;42.274;-71.436;2023-05-10T00:14:00;2.00;2.00;1.17
64861;PMS5003;62652;42.274;-71.436;2023-05-10T00:15:00;3.60;3.33;1.70
64861;PMS5003;62652;42.274;-71.436;2023-05-10T00:16:00;3.70;2.97;1.87
64861;PMS5003;62652;42.274;-71.436;2023-05-10T00:17:00;1.77;1.40;1.17
64861;PMS5003;62652;42.274;-71.436;2023-05-10T00:18:00;2.43;2.13;0.77
64861;PMS5003;62652;42.274;-71.436;2023-05-10T00:19:00;1.63;1.63;0.93
64861;PMS5003;62652;42.274;-71.436;2023-05-10T00:20:00;2.33;2.33;1.00
64861;PMS5003;62652;42.274;-71.436;2023-05-10T00:21:00;2.27;2.17;1.57
64861;PMS5003;62652;42.274;-71.436;2023-05-10T00:22:00;1.90;1.90;1.10
64861;PMS5003;62652;42.274;-71.436;2023-05-10T00:23:00;2.50;2.00;1.60
64861;PMS5003;62652;42.274;-71.436;2023-05-10T00:24:00;2.77;2.73;1.80
64861;PMS5003;62652;42.274;-71.436;2023-05-10T00:25:00;3.60;2.93;2.03
64861;PMS5003;62652;42.274;-71.436;2023-05-10T00:26:00;2.30;2.30;1.77
64861;PMS5003;62652;42.274;-71.436;2023-05-10T00:27:00;3.00;2.17;1.33
64861;PMS5003;62652;42.274;-71.436;2023-05-10T00:28:00;2.70;2.70;1.80
64861;PMS5003;62652;42.274;-71.436;2023-05-10T00:29:00;3.10;2.70;1.60
64861;PMS5003;62652;42.274;-71.436;2023-05-10T00:30:00;3.87;3.77;2.87
64861;PMS5003;62652;42.274;-71.436;2023-05-10T00:31:00;4.23;3.90;3.00
64861;PMS5003;62652;42.274;-71.436;2023-05-10T00:32:00;2.63;2.63;2.07
64861;PMS5003;62652;42.274;-71.436;2023-05-10T00:33:00;3.87;3.87;2.30
64861;PMS5003;62652;42.274;-71.436;2023-05-10T00:34:00;5.63;4.33;2.47
64861;PMS5003;62652;42.274;-71.436;2023-05-10T00:35:00;5.17;4.23;3.03
64861;PMS5003;62652;42.274;-71.436;2023-05-10T00:36:00;5.23;4.50;3.37
64861;PMS5003;62652;42.274;-71.436;2023-05-10T00:37:00;7.47;7.23;4.27
64861;PMS5003;62652;42.274;-71.436;2023-05-10T00:38:00;4.00;3.33;2.10
64861;PMS5003;62652;42.274;-71.436;2023-05-10T00:39:00;4.47;3.73;2.63
64861;PMS5003;62652;42.274;-71.436;2023-05-10T00:40:00;5.17;4.50;3.57
64861;PMS5003;62652;42.274;-71.436;2023-05-10T00:41:00;4.67;3.90;2.17
64861;PMS5003;62652;42.274;-71.436;2023-05-10T00:42:00;4.10;3.50;2.60
64861;PMS5003;62652;42.274;-71.436;2023-05-10T00:43:00;2.53;2.37;1.23
64861;PMS5003;62652;42.274;-71.436;2023-05-10T00:44:00;4.03;3.77;2.27
64861;PMS5003;62652;42.274;-71.436;2023-05-10T00:45:00;3.30;3.10;2.00
64861;PMS5003;62652;42.274;-71.436;2023-05-10T00:46:00;2.63;2.63;1.83
64861;PMS5003;62652;42.274;-71.436;2023-05-10T00:47:00;1.57;1.50;1.07
64861;PMS5003;62652;42.274;-71.436;2023-05-10T00:48:01;3.00;3.00;2.07
64861;PMS5003;62652;42.274;-71.436;2023-05-10T00:49:00;1.63;1.63;1.00
64861;PMS5003;62652;42.274;-71.436;2023-05-10T00:50:00;3.30;2.30;1.53
64861;PMS5003;62652;42.274;-71.436;2023-05-10T00:51:00;2.47;2.30;1.93
64861;PMS5003;62652;42.274;-71.436;2023-05-10T00:52:00;4.47;2.83;1.63
64861;PMS5003;62652;42.274;-71.436;2023-05-10T00:53:00;2.67;2.37;1.27
64861;PMS5003;62652;42.274;-71.436;2023-05-10T00:54:00;2.67;2.10;1.83
64861;PMS5003;62652;42.274;-71.436;2023-05-10T00:55:00;1.90;1.90;1.63
64861;PMS5003;62652;42.274;-71.436;2023-05-10T00:56:01;2.43;2.33;1.33
64861;PMS5003;62652;42.274;-71.436;2023-05-10T00:57:00;2.50;2.00;1.90
64861;PMS5003;62652;42.274;-71.436;2023-05-10T00:58:00;1.87;1.33;0.67
64861;PMS5003;62652;42.274;-71.436;2023-05-10T00:59:00;2.20;2.20;1.57
64861;PMS5003;62652;42.274;-71.436;2023-05-10T01:00:00;3.17;2.43;1.33
64861;PMS5003;62652;42.274;-71.436;2023-05-10T01:01:00;2.90;2.67;1.90
64861;PMS5003;62652;42.274;-71.436;2023-05-10T01:02:00;3.20;2.57;1.57
64861;PMS5003;62652;42.274;-71.436;2023-05-10T01:03:00;3.77;2.93;1.60
64861;PMS5003;62652;42.274;-71.436;2023-05-10T01:04:00;3.03;2.63;1.77
64861;PMS5003;62652;42.274;-71.436;2023-05-10T01:05:00;5.87;4.17;2.97
64861;PMS5003;62652;42.274;-71.436;2023-05-10T01:06:00;3.17;3.10;2.07
64861;PMS5003;62652;42.274;-71.436;2023-05-10T01:07:00;3.63;3.33;2.03
64861;PMS5003;62652;42.274;-71.436;2023-05-10T01:08:00;5.67;5.37;2.60
64861;PMS5003;62652;42.274;-71.436;2023-05-10T01:09:00;5.00;5.00;3.50
64861;PMS5003;62652;42.274;-71.436;2023-05-10T01:10:00;5.63;4.93;3.27
64861;PMS5003;62652;42.274;-71.436;2023-05-10T01:11:00;5.73;5.33;3.70
64861;PMS5003;62652;42.274;-71.436;2023-05-10T01:12:00;8.20;7.77;5.27
64861;PMS5003;62652;42.274;-71.436;2023-05-10T01:13:00;6.50;6.47;4.23
64861;PMS5003;62652;42.274;-71.436;2023-05-10T01:14:00;6.40;5.70;4.00
64861;PMS5003;62652;42.274;-71.436;2023-05-10T01:15:00;6.17;5.30;4.40
64861;PMS5003;62652;42.274;-71.436;2023-05-10T01:16:00;6.10;4.93;3.93
64861;PMS5003;62652;42.274;-71.436;2023-05-10T01:17:00;3.93;3.87;3.63
64861;PMS5003;62652;42.274;-71.436;2023-05-10T01:18:00;5.87;5.77;4.13
64861;PMS5003;62652;42.274;-71.436;2023-05-10T01:19:00;4.20;4.00;3.43
64861;PMS5003;62652;42.274;-71.436;2023-05-10T01:20:00;4.53;4.53;3.33
64861;PMS5003;62652;42.274;-71.436;2023-05-10T01:21:04;5.20;4.47;2.53
64861;PMS5003;62652;42.274;-71.436;2023-05-10T01:22:02;5.10;4.50;3.20
64861;PMS5003;62652;42.274;-71.436;2023-05-10T01:23:10;5.07;5.07;3.37
64861;PMS5003;62652;42.274;-71.436;2023-05-10T01:24:09;6.90;6.17;5.10
64861;PMS5003;62652;42.274;-71.436;2023-05-10T01:25:10;7.67;7.20;4.00
64861;PMS5003;62652;42.274;-71.436;2023-05-10T01:27:06;4.50;3.93;2.83
64861;PMS5003;62652;42.274;-71.436;2023-05-10T01:28:09;4.70;3.80;2.70
64861;PMS5003;62652;42.274;-71.436;2023-05-10T01:29:07;4.13;4.13;2.87
64861;PMS5003;62652;42.274;-71.436;2023-05-10T01:31:06;3.03;2.60;2.00
64861;PMS5003;62652;42.274;-71.436;2023-05-10T01:32:11;2.70;2.40;1.40
64861;PMS5003;62652;42.274;-71.436;2023-05-10T01:33:00;3.13;3.13;2.13
64861;PMS5003;62652;42.274;-71.436;2023-05-10T01:34:01;2.07;1.83;0.87
64861;PMS5003;62652;42.274;-71.436;2023-05-10T01:35:02;4.23;3.93;1.40
64861;PMS5003;62652;42.274;-71.436;2023-05-10T01:36:01;2.53;2.33;0.83
64861;PMS5003;62652;42.274;-71.436;2023-05-10T01:37:02;3.30;3.10;1.97
64861;PMS5003;62652;42.274;-71.436;2023-05-10T01:38:03;3.50;3.43;1.87
64861;PMS5003;62652;42.274;-71.436;2023-05-10T01:39:02;2.63;2.63;2.17
64861;PMS5003;62652;42.274;-71.436;2023-05-10T01:40:02;3.27;2.60;1.87
64861;PMS5003;62652;42.274;-71.436;2023-05-10T01:41:03;3.37;3.37;2.93
64861;PMS5003;62652;42.274;-71.436;2023-05-10T01:42:01;6.03;5.23;2.87
64861;PMS5003;62652;42.274;-71.436;2023-05-10T01:43:01;5.00;3.47;2.77
64861;PMS5003;62652;42.274;-71.436;2023-05-10T01:44:02;4.10;4.10;2.60
64861;PMS5003;62652;42.274;-71.436;2023-05-10T01:45:02;3.27;3.27;2.67
64861;PMS5003;62652;42.274;-71.436;2023-05-10T01:46:01;3.67;3.67;2.93
64861;PMS5003;62652;42.274;-71.436;2023-05-10T01:47:02;3.63;3.63;2.83
64861;PMS5003;62652;42.274;-71.436;2023-05-10T01:48:03;3.57;3.40;1.87
64861;PMS5003;62652;42.274;-71.436;2023-05-10T01:49:00;3.50;2.83;2.10
64861;PMS5003;62652;42.274;-71.436;2023-05-10T01:50:01;3.80;3.03;1.97
64861;PMS5003;62652;42.274;-71.436;2023-05-10T01:51:00;4.53;3.07;2.57
64861;PMS5003;62652;42.274;-71.436;2023-05-10T01:52:02;4.83;4.17;3.00
64861;PMS5003;62652;42.274;-71.436;2023-05-10T01:53:00;3.60;3.00;2.07
64861;PMS5003;62652;42.274;-71.436;2023-05-10T01:54:01;3.20;3.20;2.13
64861;PMS5003;62652;42.274;-71.436;2023-05-10T01:55:01;6.33;5.40;3.10
64861;PMS5003;62652;42.274;-71.436;2023-05-10T01:56:00;3.67;2.63;1.93
64861;PMS5003;62652;42.274;-71.436;2023-05-10T01:57:01;4.43;3.50;2.20
64861;PMS5003;62652;42.274;-71.436;2023-05-10T01:58:02;4.30;4.07;2.60
64861;PMS5003;62652;42.274;-71.436;2023-05-10T01:59:00;3.67;2.67;1.43
64861;PMS5003;62652;42.274;-71.436;2023-05-10T02:00:01;2.30;2.10;1.13
64861;PMS5003;62652;42.274;-71.436;2023-05-10T02:01:01;2.27;2.27;1.43
64861;PMS5003;62652;42.274;-71.436;2023-05-10T02:02:00;3.33;2.70;1.60
64861;PMS5003;62652;42.274;-71.436;2023-05-10T02:03:01;2.80;2.53;1.63
64861;PMS5003;62652;42.274;-71.436;2023-05-10T02:04:00;3.63;2.57;1.57
64861;PMS5003;62652;42.274;-71.436;2023-05-10T02:05:00;3.00;2.47;1.53
64861;PMS5003;62652;42.274;-71.436;2023-05-10T02:06:00;3.30;2.53;1.73
64861;PMS5003;62652;42.274;-71.436;2023-05-10T02:07:00;3.00;3.00;1.80
64861;PMS5003;62652;42.274;-71.436;2023-05-10T02:08:00;4.27;4.27;2.07
64861;PMS5003;62652;42.274;-71.436;2023-05-10T02:09:00;2.97;2.77;1.67
64861;PMS5003;62652;42.274;-71.436;2023-05-10T02:10:00;2.63;2.30;1.40
64861;PMS5003;62652;42.274;-71.436;2023-05-10T02:11:00;3.57;3.27;1.63
64861;PMS5003;62652;42.274;-71.436;2023-05-10T02:12:01;2.33;2.33;2.10
64861;PMS5003;62652;42.274;-71.436;2023-05-10T02:13:00;2.43;2.33;1.13
64861;PMS5003;62652;42.274;-71.436;2023-05-10T02:14:00;2.57;2.57;1.90
64861;PMS5003;62652;42.274;-71.436;2023-05-10T02:15:00;2.33;2.33;1.43
64861;PMS5003;62652;42.274;-71.436;2023-05-10T02:16:00;2.87;2.30;1.40
64861;PMS5003;62652;42.274;-71.436;2023-05-10T02:17:00;2.57;2.00;1.67
64861;PMS5003;62652;42.274;-71.436;2023-05-10T02:18:00;2.67;1.57;0.90
64861;PMS5003;62652;42.274;-71.436;2023-05-10T02:19:00;2.27;2.27;1.50
64861;PMS5003;62652;42.274;-71.436;2023-05-10T02:20:00;2.70;1.97;1.47
64861;PMS5003;62652;42.274;-71.436;2023-05-10T02:21:00;2.17;1.80;0.77
64861;PMS5003;62652;42.274;-71.436;2023-05-10T02:22:00;3.20;2.40;0.90
64861;PMS5003;62652;42.274;-71.436;2023-05-10T02:23:00;2.30;1.87;1.17
64861;PMS5003;62652;42.274;-71.436;2023-05-10T02:24:00;1.60;1.60;1.10
64861;PMS5003;62652;42.274;-71.436;2023-05-10T02:25:00;2.77;2.37;1.87
64861;PMS5003;62652;42.274;-71.436;2023-05-10T02:26:00;2.47;2.23;1.37
64861;PMS5003;62652;42.274;-71.436;2023-05-10T02:27:00;1.43;1.43;0.93
64861;PMS5003;62652;42.274;-71.436;2023-05-10T02:28:02;1.60;1.60;1.00
64861;PMS5003;62652;42.274;-71.436;2023-05-10T02:29:01;1.03;1.03;1.00
64861;PMS5003;62652;42.274;-71.436;2023-05-10T02:30:00;2.30;2.30;1.50
64861;PMS5003;62652;42.274;-71.436;2023-05-10T02:31:00;2.40;2.03;1.40
64861;PMS5003;62652;42.274;-71.436;2023-05-10T02:32:00;2.23;2.23;1.83
64861;PMS5003;62652;42.274;-71.436;2023-05-10T02:33:00;2.13;1.53;1.23
64861;PMS5003;62652;42.274;-71.436;2023-05-10T02:34:00;2.70;1.67;1.10
64861;PMS5003;62652;42.274;-71.436;2023-05-10T02:35:01;2.23;1.57;0.93
64861;PMS5003;62652;42.274;-71.436;2023-05-10T02:36:00;3.00;2.77;1.53
64861;PMS5003;62652;42.274;-71.436;2023-05-10T02:37:00;2.20;2.20;1.27
64861;PMS5003;62652;42.274;-71.436;2023-05-10T02:38:00;2.10;2.03;1.33
64861;PMS5003;62652;42.274;-71.436;2023-05-10T02:39:00;2.43;2.27;1.37
64861;PMS5003;62652;42.274;-71.436;2023-05-10T02:40:00;4.70;2.97;2.30
64861;PMS5003;62652;42.274;-71.436;2023-05-10T02:41:00;2.20;1.97;0.93
64861;PMS5003;62652;42.274;-71.436;2023-05-10T02:42:00;2.20;1.70;1.13
64861;PMS5003;62652;42.274;-71.436;2023-05-10T02:43:01;2.70;2.70;1.70
64861;PMS5003;62652;42.274;-71.436;2023-05-10T02:44:01;2.53;1.40;1.00
64861;PMS5003;62652;42.274;-71.436;2023-05-10T02:45:01;2.70;2.63;1.87
64861;PMS5003;62652;42.274;-71.436;2023-05-10T02:46:00;2.70;2.60;1.70
64861;PMS5003;62652;42.274;-71.436;2023-05-10T02:47:00;3.53;2.77;1.60
64861;PMS5003;62652;42.274;-71.436;2023-05-10T02:48:00;2.10;2.10;1.20
64861;PMS5003;62652;42.274;-71.436;2023-05-10T02:49:00;4.03;3.93;2.37
64861;PMS5003;62652;42.274;-71.436;2023-05-10T02:50:00;2.20;2.20;1.27
64861;PMS5003;62652;42.274;-71.436;2023-05-10T02:51:01;1.70;1.47;1.00
64861;PMS5003;62652;42.274;-71.436;2023-05-10T02:52:01;1.53;1.13;0.53
64861;PMS5003;62652;42.274;-71.436;2023-05-10T02:53:01;2.70;2.40;1.87
64861;PMS5003;62652;42.274;-71.436;2023-05-10T02:54:01;2.37;1.90;1.43
64861;PMS5003;62652;42.274;-71.436;2023-05-10T02:55:01;1.27;1.27;0.93
64861;PMS5003;62652;42.274;-71.436;2023-05-10T02:56:01;3.13;1.90;1.30
64861;PMS5003;62652;42.274;-71.436;2023-05-10T02:57:00;2.87;2.53;1.70
64861;PMS5003;62652;42.274;-71.436;2023-05-10T02:58:00;3.27;2.23;1.70
64861;PMS5003;62652;42.274;-71.436;2023-05-10T02:59:00;1.90;1.90;1.50
64861;PMS5003;62652;42.274;-71.436;2023-05-10T03:00:00;2.13;2.13;1.33
64861;PMS5003;62652;42.274;-71.436;2023-05-10T03:01:00;2.47;2.47;1.67
64861;PMS5003;62652;42.274;-71.436;2023-05-10T03:02:00;3.50;2.70;1.50
64861;PMS5003;62652;42.274;-71.436;2023-05-10T03:03:00;2.10;2.10;1.47
64861;PMS5003;62652;42.274;-71.436;2023-05-10T03:04:00;1.77;1.70;1.00
64861;PMS5003;62652;42.274;-71.436;2023-05-10T03:05:00;3.57;2.67;1.30
64861;PMS5003;62652;42.274;-71.436;2023-05-10T03:06:00;2.07;2.07;1.17
64861;PMS5003;62652;42.274;-71.436;2023-05-10T03:07:00;1.93;1.93;1.30
64861;PMS5003;62652;42.274;-71.436;2023-05-10T03:08:00;3.03;1.87;0.73
64861;PMS5003;62652;42.274;-71.436;2023-05-10T03:09:01;1.50;1.50;0.90
64861;PMS5003;62652;42.274;-71.436;2023-05-10T03:10:00;2.20;1.87;0.90
64861;PMS5003;62652;42.274;-71.436;2023-05-10T03:11:05;2.43;1.87;1.87
64861;PMS5003;62652;42.274;-71.436;2023-05-10T03:12:01;2.93;2.13;1.50
64861;PMS5003;62652;42.274;-71.436;2023-05-10T03:13:05;1.30;1.17;0.80
64861;PMS5003;62652;42.274;-71.436;2023-05-10T03:14:04;1.97;1.97;1.07
64861;PMS5003;62652;42.274;-71.436;2023-05-10T03:15:01;1.90;1.07;0.37
64861;PMS5003;62652;42.274;-71.436;2023-05-10T03:16:03;3.27;3.27;2.17
64861;PMS5003;62652;42.274;-71.436;2023-05-10T03:17:04;1.87;1.50;1.17
64861;PMS5003;62652;42.274;-71.436;2023-05-10T03:18:01;1.90;1.63;1.10
64861;PMS5003;62652;42.274;-71.436;2023-05-10T03:19:01;2.77;2.77;1.90
64861;PMS5003;62652;42.274;-71.436;2023-05-10T03:20:03;2.53;2.27;1.17
64861;PMS5003;62652;42.274;-71.436;2023-05-10T03:21:01;1.57;1.57;0.90
64861;PMS5003;62652;42.274;-71.436;2023-05-10T03:22:03;3.00;3.00;2.00
64861;PMS5003;62652;42.274;-71.436;2023-05-10T03:23:02;2.13;2.00;1.00
64861;PMS5003;62652;42.274;-71.436;2023-05-10T03:24:03;2.50;2.43;1.80
64861;PMS5003;62652;42.274;-71.436;2023-05-10T03:25:00;3.17;3.17;1.97
64861;PMS5003;62652;42.274;-71.436;2023-05-10T03:26:00;2.30;1.87;1.10
64861;PMS5003;62652;42.274;-71.436;2023-05-10T03:27:00;2.23;2.07;1.37
64861;PMS5003;62652;42.274;-71.436;2023-05-10T03:28:00;3.03;2.37;1.67
64861;PMS5003;62652;42.274;-71.436;2023-05-10T03:29:00;1.97;1.83;1.13
64861;PMS5003;62652;42.274;-71.436;2023-05-10T03:30:01;1.10;1.10;0.87
64861;PMS5003;62652;42.274;-71.436;2023-05-10T03:31:00;1.20;1.20;0.20
64861;PMS5003;62652;42.274;-71.436;2023-05-10T03:32:00;2.27;2.00;1.43
64861;PMS5003;62652;42.274;-71.436;2023-05-10T03:33:04;3.03;2.00;1.10
64861;PMS5003;62652;42.274;-71.436;2023-05-10T03:34:00;2.07;1.53;0.90
64861;PMS5003;62652;42.274;-71.436;2023-05-10T03:35:00;2.40;2.40;1.57
64861;PMS5003;62652;42.274;-71.436;2023-05-10T03:36:00;1.70;1.27;0.37
64861;PMS5003;62652;42.274;-71.436;2023-05-10T03:37:00;3.20;2.70;1.70
64861;PMS5003;62652;42.274;-71.436;2023-05-10T03:38:00;2.90;2.13;1.43
64861;PMS5003;62652;42.274;-71.436;2023-05-10T03:39:00;2.00;1.87;1.00
64861;PMS5003;62652;42.274;-71.436;2023-05-10T03:40:00;1.87;1.87;0.87
64861;PMS5003;62652;42.274;-71.436;2023-05-10T03:41:00;3.37;2.80;1.47
64861;PMS5003;62652;42.274;-71.436;2023-05-10T03:42:00;1.13;0.87;0.83
64861;PMS5003;62652;42.274;-71.436;2023-05-10T03:43:00;3.13;2.17;1.33
64861;PMS5003;62652;42.274;-71.436;2023-05-10T03:44:00;3.47;2.37;2.00
64861;PMS5003;62652;42.274;-71.436;2023-05-10T03:45:00;2.70;2.27;1.53
64861;PMS5003;62652;42.274;-71.436;2023-05-10T03:46:01;1.80;1.80;0.77
64861;PMS5003;62652;42.274;-71.436;2023-05-10T03:47:00;2.00;2.00;1.23
64861;PMS5003;62652;42.274;-71.436;2023-05-10T03:48:00;2.00;2.00;1.90
64861;PMS5003;62652;42.274;-71.436;2023-05-10T03:49:00;2.87;2.03;1.03
64861;PMS5003;62652;42.274;-71.436;2023-05-10T03:50:00;2.47;2.47;1.87
64861;PMS5003;62652;42.274;-71.436;2023-05-10T03:51:00;1.83;1.63;1.13
64861;PMS5003;62652;42.274;-71.436;2023-05-10T03:52:00;3.10;2.47;2.00
64861;PMS5003;62652;42.274;-71.436;2023-05-10T03:53:00;2.83;2.77;2.37
64861;PMS5003;62652;42.274;-71.436;2023-05-10T03:54:00;2.30;2.30;1.70
64861;PMS5003;62652;42.274;-71.436;2023-05-10T03:55:00;1.47;1.30;0.43
64861;PMS5003;62652;42.274;-71.436;2023-05-10T03:56:00;1.93;1.83;1.00
64861;PMS5003;62652;42.274;-71.436;2023-05-10T03:57:00;1.77;1.77;1.00
64861;PMS5003;62652;42.274;-71.436;2023-05-10T03:58:00;3.13;2.47;1.23
64861;PMS5003;62652;42.274;-71.436;2023-05-10T03:59:00;2.13;2.13;1.77
64861;PMS5003;62652;42.274;-71.436;2023-05-10T04:00:00;1.20;1.20;0.63
64861;PMS5003;62652;42.274;-71.436;2023-05-10T04:01:00;2.83;2.17;1.57
64861;PMS5003;62652;42.274;-71.436;2023-05-10T04:02:00;2.20;2.20;1.53
64861;PMS5003;62652;42.274;-71.436;2023-05-10T04:03:00;2.47;2.00;1.03
64861;PMS5003;62652;42.274;-71.436;2023-05-10T04:04:00;1.87;1.83;1.20
64861;PMS5003;62652;42.274;-71.436;2023-05-10T04:05:00;2.53;2.33;1.57
64861;PMS5003;62652;42.274;-71.436;2023-05-10T04:06:00;3.20;2.37;1.67
64861;PMS5003;62652;42.274;-71.436;2023-05-10T04:07:00;3.83;2.53;1.90
64861;PMS5003;62652;42.274;-71.436;2023-05-10T04:08:00;3.03;2.40;1.33
64861;PMS5003;62652;42.274;-71.436;2023-05-10T04:09:00;3.03;2.90;1.93
64861;PMS5003;62652;42.274;-71.436;2023-05-10T04:10:00;2.43;2.23;1.47
64861;PMS5003;62652;42.274;-71.436;2023-05-10T04:11:08;1.97;1.63;1.00
64861;PMS5003;62652;42.274;-71.436;2023-05-10T04:12:00;2.70;1.90;1.63
64861;PMS5003;62652;42.274;-71.436;2023-05-10T04:13:00;1.93;1.87;1.07
64861;PMS5003;62652;42.274;-71.436;2023-05-10T04:14:00;2.60;2.33;1.40
64861;PMS5003;62652;42.274;-71.436;2023-05-10T04:15:00;1.90;1.20;0.93
64861;PMS5003;62652;42.274;-71.436;2023-05-10T04:16:00;2.93;2.23;1.13
64861;PMS5003;62652;42.274;-71.436;2023-05-10T04:17:00;2.00;2.00;1.17
64861;PMS5003;62652;42.274;-71.436;2023-05-10T04:18:00;3.27;2.80;2.00
64861;PMS5003;62652;42.274;-71.436;2023-05-10T04:19:00;3.17;3.13;1.80
64861;PMS5003;62652;42.274;-71.436;2023-05-10T04:20:00;1.90;1.87;1.10
64861;PMS5003;62652;42.274;-71.436;2023-05-10T04:21:00;2.20;2.20;1.23
64861;PMS5003;62652;42.274;-71.436;2023-05-10T04:22:01;2.93;2.93;1.80
64861;PMS5003;62652;42.274;-71.436;2023-05-10T04:23:00;1.93;1.50;1.10
64861;PMS5003;62652;42.274;-71.436;2023-05-10T04:24:00;2.93;2.87;1.33
64861;PMS5003;62652;42.274;-71.436;2023-05-10T04:25:00;2.47;2.03;1.10
64861;PMS5003;62652;42.274;-71.436;2023-05-10T04:26:00;2.53;2.30;1.47
64861;PMS5003;62652;42.274;-71.436;2023-05-10T04:27:00;2.00;2.00;1.37
64861;PMS5003;62652;42.274;-71.436;2023-05-10T04:28:00;2.30;2.17;1.87
64861;PMS5003;62652;42.274;-71.436;2023-05-10T04:29:00;2.00;2.00;1.10
64861;PMS5003;62652;42.274;-71.436;2023-05-10T04:30:00;2.87;1.87;0.87
64861;PMS5003;62652;42.274;-71.436;2023-05-10T04:31:01;2.37;2.17;1.47
64861;PMS5003;62652;42.274;-71.436;2023-05-10T04:32:00;3.00;2.17;1.17
64861;PMS5003;62652;42.274;-71.436;2023-05-10T04:33:00;1.97;1.97;1.00
64861;PMS5003;62652;42.274;-71.436;2023-05-10T04:34:00;5.47;3.10;2.00
64861;PMS5003;62652;42.274;-71.436;2023-05-10T04:35:00;3.87;2.60;1.20
64861;PMS5003;62652;42.274;-71.436;2023-05-10T04:36:00;3.37;3.03;2.00
64861;PMS5003;62652;42.274;-71.436;2023-05-10T04:37:00;1.80;1.80;1.00
64861;PMS5003;62652;42.274;-71.436;2023-05-10T04:38:00;2.53;2.10;1.00
64861;PMS5003;62652;42.274;-71.436;2023-05-10T04:39:00;1.97;1.97;1.13
64861;PMS5003;62652;42.274;-71.436;2023-05-10T04:40:00;2.80;2.33;1.27
64861;PMS5003;62652;42.274;-71.436;2023-05-10T04:41:03;1.63;1.27;0.60
64861;PMS5003;62652;42.274;-71.436;2023-05-10T04:42:00;1.83;1.83;1.17
64861;PMS5003;62652;42.274;-71.436;2023-05-10T04:43:00;2.57;2.57;1.47
64861;PMS5003;62652;42.274;-71.436;2023-05-10T04:44:00;2.37;2.07;1.73
64861;PMS5003;62652;42.274;-71.436;2023-05-10T04:45:00;2.30;2.30;0.90
64861;PMS5003;62652;42.274;-71.436;2023-05-10T04:46:00;2.53;2.53;1.83
64861;PMS5003;62652;42.274;-71.436;2023-05-10T04:47:00;2.30;1.37;0.37
64861;PMS5003;62652;42.274;-71.436;2023-05-10T04:48:00;1.47;1.47;0.57
64861;PMS5003;62652;42.274;-71.436;2023-05-10T04:49:00;4.63;2.83;1.17
64861;PMS5003;62652;42.274;-71.436;2023-05-10T04:50:00;1.83;1.60;1.00
64861;PMS5003;62652;42.274;-71.436;2023-05-10T04:51:00;2.27;1.93;1.33
64861;PMS5003;62652;42.274;-71.436;2023-05-10T04:52:00;3.10;2.50;1.43
64861;PMS5003;62652;42.274;-71.436;2023-05-10T04:53:00;1.93;1.93;1.03
64861;PMS5003;62652;42.274;-71.436;2023-05-10T04:54:00;3.23;2.87;2.00
64861;PMS5003;62652;42.274;-71.436;2023-05-10T04:55:00;2.07;1.90;1.07
64861;PMS5003;62652;42.274;-71.436;2023-05-10T04:56:00;2.40;2.00;1.00
64861;PMS5003;62652;42.274;-71.436;2023-05-10T04:57:00;1.90;1.90;1.00
64861;PMS5003;62652;42.274;-71.436;2023-05-10T04:58:00;1.83;1.83;1.13
64861;PMS5003;62652;42.274;-71.436;2023-05-10T04:59:00;2.13;1.37;0.40
64861;PMS5003;62652;42.274;-71.436;2023-05-10T05:00:00;1.57;1.57;1.07
64861;PMS5003;62652;42.274;-71.436;2023-05-10T05:01:04;2.00;2.00;1.10
64861;PMS5003;62652;42.274;-71.436;2023-05-10T05:02:00;2.77;2.27;1.67
64861;PMS5003;62652;42.274;-71.436;2023-05-10T05:03:00;2.20;2.00;1.10
64861;PMS5003;62652;42.274;-71.436;2023-05-10T05:04:00;1.87;1.37;0.53
64861;PMS5003;62652;42.274;-71.436;2023-05-10T05:05:00;3.23;2.27;1.30
64861;PMS5003;62652;42.274;-71.436;2023-05-10T05:06:00;3.17;3.13;1.47
64861;PMS5003;62652;42.274;-71.436;2023-05-10T05:07:00;3.17;3.17;1.63
64861;PMS5003;62652;42.274;-71.436;2023-05-10T05:08:00;1.57;1.30;0.20
64861;PMS5003;62652;42.274;-71.436;2023-05-10T05:09:00;1.20;1.20;0.57
64861;PMS5003;62652;42.274;-71.436;2023-05-10T05:10:00;3.33;2.57;1.67
64861;PMS5003;62652;42.274;-71.436;2023-05-10T05:11:00;3.70;2.47;1.60
64861;PMS5003;62652;42.274;-71.436;2023-05-10T05:12:00;1.80;1.80;1.00
64861;PMS5003;62652;42.274;-71.436;2023-05-10T05:13:00;1.80;1.80;1.03
64861;PMS5003;62652;42.274;-71.436;2023-05-10T05:14:00;2.40;2.40;1.30
64861;PMS5003;62652;42.274;-71.436;2023-05-10T05:15:00;2.23;2.00;1.13
64861;PMS5003;62652;42.274;-71.436;2023-05-10T05:16:00;1.50;1.13;1.00
64861;PMS5003;62652;42.274;-71.436;2023-05-10T05:17:00;2.60;2.23;0.90
64861;PMS5003;62652;42.274;-71.436;2023-05-10T05:18:00;2.33;2.33;1.00
64861;PMS5003;62652;42.274;-71.436;2023-05-10T05:19:00;2.73;2.73;1.43
64861;PMS5003;62652;42.274;-71.436;2023-05-10T05:20:00;1.33;1.33;1.00
64861;PMS5003;62652;42.274;-71.436;2023-05-10T05:21:00;3.73;2.50;1.33
64861;PMS5003;62652;42.274;-71.436;2023-05-10T05:22:00;2.43;2.37;1.70
64861;PMS5003;62652;42.274;-71.436;2023-05-10T05:23:00;3.83;2.83;1.30
64861;PMS5003;62652;42.274;-71.436;2023-05-10T05:24:00;2.33;2.33;1.07
64861;PMS5003;62652;42.274;-71.436;2023-05-10T05:25:00;2.60;2.60;1.97
64861;PMS5003;62652;42.274;-71.436;2023-05-10T05:26:00;2.07;1.87;1.17
64861;PMS5003;62652;42.274;-71.436;2023-05-10T05:27:00;1.03;1.03;0.53
64861;PMS5003;62652;42.274;-71.436;2023-05-10T05:28:00;2.07;1.87;0.97
64861;PMS5003;62652;42.274;-71.436;2023-05-10T05:29:00;2.40;2.00;1.50
64861;PMS5003;62652;42.274;-71.436;2023-05-10T05:30:00;2.03;2.03;1.27
64861;PMS5003;62652;42.274;-71.436;2023-05-10T05:31:00;2.97;2.43;1.87
64861;PMS5003;62652;42.274;-71.436;2023-05-10T05:32:00;2.17;2.10;1.57
64861;PMS5003;62652;42.274;-71.436;2023-05-10T05:33:00;2.30;1.67;0.60
64861;PMS5003;62652;42.274;-71.436;2023-05-10T05:34:00;2.63;2.63;1.30
64861;PMS5003;62652;42.274;-71.436;2023-05-10T05:35:00;3.10;3.10;2.00
64861;PMS5003;62652;42.274;-71.436;2023-05-10T05:36:00;4.37;3.70;2.27
64861;PMS5003;62652;42.274;-71.436;2023-05-10T05:37:00;2.93;2.80;1.70
64861;PMS5003;62652;42.274;-71.436;2023-05-10T05:38:00;1.57;1.57;0.30
64861;PMS5003;62652;42.274;-71.436;2023-05-10T05:39:00;2.93;2.20;1.77
64861;PMS5003;62652;42.274;-71.436;2023-05-10T05:40:00;1.80;1.80;1.07
64861;PMS5003;62652;42.274;-71.436;2023-05-10T05:41:00;4.20;3.13;1.60
64861;PMS5003;62652;42.274;-71.436;2023-05-10T05:42:00;1.37;1.37;0.37
64861;PMS5003;62652;42.274;-71.436;2023-05-10T05:43:00;2.77;2.13;1.10